Time;durP1;ratioP1;P1;durP2;ratioP2;P2;SDS_P1;SDS_P2;PMS_P1;PMS_P2;Temp;Humidity;BMP_temperature;BMP_pressure;BME280_temperature;BME280_humidity;BME280_pressure;Samples;Min_cycle;Max_cycle;Signal;HPM_P1;HPM_P2
2022/08/06 00:01:46;;;;;;;2.37;0.90;;;;;;;;;;1878722;75;26235;-87
2022/08/06 00:04:13;;;;;;;0.90;0.90;;;;;;;;;;1869233;74;26340;-86
2022/08/06 00:06:41;;;;;;;1.20;0.70;;;;;;;;;;1861633;74;27132;-86
2022/08/06 00:09:08;;;;;;;0.72;0.72;;;;;;;;;;1858329;75;26861;-86
2022/08/06 00:11:35;;;;;;;0.80;0.80;;;;;;;;;;1872275;75;26336;-86
2022/08/06 00:14:02;;;;;;;2.87;0.82;;;;;;;;;;1888291;74;26222;-86
2022/08/06 00:16:30;;;;;;;2.17;0.80;;;;;;;;;;1891235;75;26250;-86
2022/08/06 00:18:57;;;;;;;1.70;0.70;;;;;;;;;;1864366;74;26222;-86
2022/08/06 00:21:24;;;;;;;0.60;0.60;;;;;;;;;;1861269;74;26334;-86
2022/08/06 00:23:52;;;;;;;0.95;0.65;;;;;;;;;;1882186;75;26682;-86
2022/08/06 00:26:19;;;;;;;0.62;0.62;;;;;;;;;;1866009;76;26233;-86
2022/08/06 00:28:46;;;;;;;0.95;0.68;;;;;;;;;;1870610;74;26257;-86
2022/08/06 00:31:14;;;;;;;1.37;0.62;;;;;;;;;;1871036;74;26321;-87
2022/08/06 00:33:41;;;;;;;0.90;0.70;;;;;;;;;;1884525;74;26297;-86
2022/08/06 00:36:09;;;;;;;0.70;0.60;;;;;;;;;;1862775;74;26851;-86
2022/08/06 00:38:36;;;;;;;0.57;0.57;;;;;;;;;;1866056;75;26240;-86
2022/08/06 00:41:04;;;;;;;3.72;0.57;;;;;;;;;;1887031;74;26618;-86
2022/08/06 00:43:31;;;;;;;0.80;0.70;;;;;;;;;;1882097;75;26719;-86
2022/08/06 00:45:58;;;;;;;0.90;0.55;;;;;;;;;;1878896;75;26295;-85
2022/08/06 00:48:26;;;;;;;1.15;0.70;;;;;;;;;;1866201;74;26275;-87
2022/08/06 00:50:53;;;;;;;0.98;0.70;;;;;;;;;;1880361;74;26236;-86
2022/08/06 00:53:20;;;;;;;0.85;0.65;;;;;;;;;;1880592;74;26742;-86
2022/08/06 00:55:47;;;;;;;0.72;0.60;;;;;;;;;;1862549;75;26238;-86
2022/08/06 00:58:15;;;;;;;1.67;0.62;;;;;;;;;;1870177;75;26301;-85
2022/08/06 01:00:42;;;;;;;2.10;0.72;;;;;;;;;;1881813;75;26254;-86
2022/08/06 01:03:10;;;;;;;0.50;0.50;;;;;;;;;;1870476;75;26240;-86
2022/08/06 01:05:38;;;;;;;1.57;0.70;;;;;;;;;;1886681;74;26227;-86
2022/08/06 01:08:05;;;;;;;0.60;0.60;;;;;;;;;;1884388;75;26320;-86
2022/08/06 01:10:32;;;;;;;1.65;0.60;;;;;;;;;;1874389;74;26748;-86
2022/08/06 01:12:59;;;;;;;2.02;0.70;;;;;;;;;;1890340;74;26705;-86
2022/08/06 01:15:27;;;;;;;0.70;0.70;;;;;;;;;;1879912;74;26647;-85
2022/08/06 01:17:58;;;;;;;0.50;0.50;;;;;;;;;;1888802;74;26222;-86
2022/08/06 01:20:30;;;;;;;2.35;0.65;;;;;;;;;;1833496;76;26292;-85
2022/08/06 01:23:11;;;;;;;1.00;0.50;;;;;;;;;;1824226;75;26319;-86
2022/08/06 01:25:55;;;;;;;1.62;0.70;;;;;;;;;;1870692;74;26690;-86
2022/08/06 01:28:32;;;;;;;0.60;0.60;;;;;;;;;;1880330;75;26302;-86
2022/08/06 01:31:04;;;;;;;0.60;0.60;;;;;;;;;;1878866;74;26235;-86
2022/08/06 01:33:33;;;;;;;0.82;0.70;;;;;;;;;;1835341;75;26720;-86
2022/08/06 01:36:02;;;;;;;0.62;0.62;;;;;;;;;;1862235;75;26205;-86
2022/08/06 01:38:33;;;;;;;1.37;0.78;;;;;;;;;;1859156;72;26207;-86
2022/08/06 01:41:02;;;;;;;0.68;0.50;;;;;;;;;;1870338;75;26206;-86
2022/08/06 01:43:30;;;;;;;0.60;0.60;;;;;;;;;;1878824;74;26217;-87
2022/08/06 01:45:58;;;;;;;1.52;0.60;;;;;;;;;;1869228;74;26279;-85
2022/08/06 01:48:26;;;;;;;0.95;0.62;;;;;;;;;;1885944;73;26264;-87
2022/08/06 01:50:55;;;;;;;1.65;0.85;;;;;;;;;;1866965;73;26270;-86
2022/08/06 01:53:24;;;;;;;1.75;0.60;;;;;;;;;;1873604;71;26261;-87
2022/08/06 01:55:53;;;;;;;1.67;0.60;;;;;;;;;;1870402;74;26194;-87
2022/08/06 01:58:22;;;;;;;1.55;0.70;;;;;;;;;;1883396;74;26202;-87
2022/08/06 02:00:51;;;;;;;0.72;0.70;;;;;;;;;;1871009;74;26225;-87
2022/08/06 02:03:32;;;;;;;0.85;0.75;;;;;;;;;;1879645;74;26206;-87
2022/08/06 02:06:01;;;;;;;1.22;0.70;;;;;;;;;;1875579;75;26209;-86
2022/08/06 02:08:30;;;;;;;0.60;0.60;;;;;;;;;;1885374;74;26271;-86
2022/08/06 02:10:57;;;;;;;1.10;0.98;;;;;;;;;;1896435;74;26707;-86
2022/08/06 02:13:26;;;;;;;0.60;0.60;;;;;;;;;;1886511;74;26332;-85
2022/08/06 02:15:54;;;;;;;1.10;0.65;;;;;;;;;;1851308;75;26220;-87
2022/08/06 02:18:22;;;;;;;0.80;0.53;;;;;;;;;;1871200;75;26267;-87
2022/08/06 02:20:51;;;;;;;1.75;0.65;;;;;;;;;;1869101;75;26201;-85
2022/08/06 02:23:20;;;;;;;4.03;0.60;;;;;;;;;;1886764;74;26237;-85
2022/08/06 02:25:48;;;;;;;0.50;0.50;;;;;;;;;;1896284;74;26259;-86
2022/08/06 02:28:17;;;;;;;1.32;0.60;;;;;;;;;;1869806;74;26647;-86
2022/08/06 02:30:46;;;;;;;0.53;0.53;;;;;;;;;;1863136;75;26237;-86
2022/08/06 02:33:13;;;;;;;0.53;0.53;;;;;;;;;;1848114;75;26250;-86
2022/08/06 02:35:42;;;;;;;0.60;0.60;;;;;;;;;;1855546;74;26797;-86
2022/08/06 02:38:11;;;;;;;0.40;0.40;;;;;;;;;;1858624;75;26815;-86
2022/08/06 02:40:39;;;;;;;0.50;0.50;;;;;;;;;;1875261;75;26423;-86
2022/08/06 02:43:23;;;;;;;0.70;0.70;;;;;;;;;;1869653;75;26382;-86
2022/08/06 02:45:57;;;;;;;0.93;0.50;;;;;;;;;;1851419;74;26401;-86
2022/08/06 02:48:26;;;;;;;0.60;0.55;;;;;;;;;;1876563;74;26257;-87
2022/08/06 02:50:55;;;;;;;0.50;0.47;;;;;;;;;;1886382;74;26255;-86
2022/08/06 02:53:25;;;;;;;0.50;0.50;;;;;;;;;;1867878;74;26310;-86
2022/08/06 02:55:58;;;;;;;0.50;0.50;;;;;;;;;;1849609;75;26388;-86
2022/08/06 02:58:42;;;;;;;0.80;0.50;;;;;;;;;;1824896;75;27039;-86
2022/08/06 03:01:10;;;;;;;0.72;0.50;;;;;;;;;;1869146;74;26277;-87
2022/08/06 03:03:39;;;;;;;0.60;0.40;;;;;;;;;;1874494;74;26681;-85
2022/08/06 03:06:07;;;;;;;0.80;0.40;;;;;;;;;;1891189;74;26268;-86
2022/08/06 03:08:35;;;;;;;0.45;0.45;;;;;;;;;;1881715;74;26299;-86
2022/08/06 03:11:03;;;;;;;2.05;0.62;;;;;;;;;;1875172;74;26785;-86
2022/08/06 03:13:30;;;;;;;0.40;0.40;;;;;;;;;;1880955;75;26272;-86
2022/08/06 03:15:59;;;;;;;0.60;0.60;;;;;;;;;;1882078;74;26243;-86
2022/08/06 03:18:27;;;;;;;0.50;0.50;;;;;;;;;;1893843;74;26771;-86
2022/08/06 03:20:56;;;;;;;0.60;0.60;;;;;;;;;;1884985;75;26212;-86
2022/08/06 03:23:24;;;;;;;0.85;0.70;;;;;;;;;;1886820;74;26186;-86
2022/08/06 03:25:52;;;;;;;0.60;0.60;;;;;;;;;;1866183;75;27081;-86
2022/08/06 03:28:20;;;;;;;0.60;0.60;;;;;;;;;;1877098;75;26244;-86
2022/08/06 03:30:48;;;;;;;0.50;0.50;;;;;;;;;;1857514;74;26273;-86
2022/08/06 03:33:15;;;;;;;0.57;0.45;;;;;;;;;;1882813;74;26246;-86
2022/08/06 03:35:43;;;;;;;1.22;0.60;;;;;;;;;;1856018;75;26345;-85
2022/08/06 03:38:11;;;;;;;0.65;0.60;;;;;;;;;;1875106;74;26331;-86
2022/08/06 03:40:40;;;;;;;2.98;0.80;;;;;;;;;;1861847;74;26234;-86
2022/08/06 03:43:07;;;;;;;0.40;0.40;;;;;;;;;;1878175;74;26717;-86
2022/08/06 03:45:36;;;;;;;1.00;0.72;;;;;;;;;;1878480;74;26336;-88
2022/08/06 03:48:04;;;;;;;1.37;0.70;;;;;;;;;;1874402;75;26251;-85
2022/08/06 03:50:33;;;;;;;1.02;0.68;;;;;;;;;;1885326;74;27145;-87
2022/08/06 03:53:02;;;;;;;0.55;0.55;;;;;;;;;;1854096;74;26665;-85
2022/08/06 03:55:31;;;;;;;0.50;0.50;;;;;;;;;;1887068;74;26344;-86
2022/08/06 03:58:00;;;;;;;1.87;0.47;;;;;;;;;;1844017;75;27059;-86
2022/08/06 04:00:28;;;;;;;0.70;0.70;;;;;;;;;;1862791;75;26685;-86
2022/08/06 04:02:57;;;;;;;0.57;0.57;;;;;;;;;;1871711;74;26245;-86
2022/08/06 04:05:26;;;;;;;1.90;0.50;;;;;;;;;;1876384;75;26336;-85
2022/08/06 04:08:06;;;;;;;0.85;0.60;;;;;;;;;;1854751;75;26240;-86
2022/08/06 04:10:35;;;;;;;0.65;0.60;;;;;;;;;;1875072;75;26269;-86
2022/08/06 04:13:10;;;;;;;0.85;0.60;;;;;;;;;;1880304;75;26291;-86
2022/08/06 04:15:38;;;;;;;0.88;0.40;;;;;;;;;;1873341;76;26186;-83
2022/08/06 04:18:06;;;;;;;0.98;0.60;;;;;;;;;;1883711;74;26253;-86
2022/08/06 04:20:34;;;;;;;0.65;0.65;;;;;;;;;;1882075;74;26207;-87
2022/08/06 04:23:02;;;;;;;2.83;0.70;;;;;;;;;;1872933;75;26210;-87
2022/08/06 04:25:31;;;;;;;1.80;0.60;;;;;;;;;;1861925;75;26238;-87
2022/08/06 04:27:59;;;;;;;0.93;0.70;;;;;;;;;;1883665;75;26198;-87
2022/08/06 04:30:27;;;;;;;0.95;0.68;;;;;;;;;;1882102;74;26234;-87
2022/08/06 04:32:55;;;;;;;0.85;0.60;;;;;;;;;;1871275;75;26256;-86
2022/08/06 04:35:22;;;;;;;0.65;0.65;;;;;;;;;;1889008;74;26296;-87
2022/08/06 04:37:49;;;;;;;0.40;0.40;;;;;;;;;;1870340;75;26312;-87
2022/08/06 04:40:17;;;;;;;0.60;0.60;;;;;;;;;;1887027;74;26242;-87
2022/08/06 04:42:44;;;;;;;2.33;0.65;;;;;;;;;;1884324;75;26693;-87
2022/08/06 04:45:12;;;;;;;0.82;0.60;;;;;;;;;;1870683;74;26249;-89
2022/08/06 04:47:39;;;;;;;2.47;0.60;;;;;;;;;;1883581;75;26208;-87
2022/08/06 04:50:07;;;;;;;1.80;0.70;;;;;;;;;;1867038;75;26368;-87
2022/08/06 04:52:34;;;;;;;1.20;0.78;;;;;;;;;;1862923;75;26753;-88
2022/08/06 04:55:01;;;;;;;1.47;0.90;;;;;;;;;;1881915;75;26271;-87
2022/08/06 04:57:29;;;;;;;1.02;0.70;;;;;;;;;;1878699;75;26719;-86
2022/08/06 04:59:56;;;;;;;0.88;0.75;;;;;;;;;;1877294;75;26633;-86
2022/08/06 05:02:23;;;;;;;4.87;0.90;;;;;;;;;;1873195;75;26633;-87
2022/08/06 05:04:57;;;;;;;7.92;0.80;;;;;;;;;;1883830;74;26247;-86
2022/08/06 05:07:27;;;;;;;5.60;0.80;;;;;;;;;;1870996;74;26705;-87
2022/08/06 05:09:56;;;;;;;1.45;1.02;;;;;;;;;;1870482;75;26264;-88
2022/08/06 05:12:27;;;;;;;15.40;0.95;;;;;;;;;;1861052;75;26233;-89
2022/08/06 05:14:56;;;;;;;2.02;0.80;;;;;;;;;;1865733;75;26964;-87
2022/08/06 05:17:25;;;;;;;2.80;0.80;;;;;;;;;;1871639;74;26314;-87
2022/08/06 05:20:10;;;;;;;2.72;0.68;;;;;;;;;;1869774;75;26230;-87
2022/08/06 05:22:38;;;;;;;3.05;0.80;;;;;;;;;;1870990;74;26262;-87
2022/08/06 05:25:06;;;;;;;1.77;0.70;;;;;;;;;;1867431;75;26358;-87
2022/08/06 05:27:34;;;;;;;3.60;0.95;;;;;;;;;;1869868;74;26335;-86
2022/08/06 05:30:02;;;;;;;0.55;0.55;;;;;;;;;;1873200;74;26327;-85
2022/08/06 05:32:30;;;;;;;1.85;0.82;;;;;;;;;;1875431;74;26212;-85
2022/08/06 05:34:57;;;;;;;0.50;0.50;;;;;;;;;;1870104;74;26216;-86
2022/08/06 05:37:24;;;;;;;1.32;0.68;;;;;;;;;;1859867;74;26274;-87
2022/08/06 05:39:52;;;;;;;2.42;0.80;;;;;;;;;;1870235;74;26288;-86
2022/08/06 05:42:19;;;;;;;2.67;0.70;;;;;;;;;;1877270;74;26194;-85
2022/08/06 05:44:46;;;;;;;4.20;0.70;;;;;;;;;;1876926;75;26277;-86
2022/08/06 05:47:15;;;;;;;10.65;0.70;;;;;;;;;;1887876;74;26754;-87
2022/08/06 05:49:44;;;;;;;7.53;1.05;;;;;;;;;;1877526;74;26658;-88
2022/08/06 05:52:21;;;;;;;4.92;1.10;;;;;;;;;;1873081;74;26266;-86
2022/08/06 05:54:50;;;;;;;3.65;0.70;;;;;;;;;;1856115;75;26728;-87
2022/08/06 05:57:30;;;;;;;4.83;0.70;;;;;;;;;;1854086;75;26243;-87
2022/08/06 06:00:04;;;;;;;4.30;1.00;;;;;;;;;;1860637;75;26685;-88
2022/08/06 06:02:31;;;;;;;3.42;0.90;;;;;;;;;;1837671;75;26233;-88
2022/08/06 06:04:59;;;;;;;2.45;0.60;;;;;;;;;;1846092;75;26265;-89
2022/08/06 06:07:27;;;;;;;1.42;0.78;;;;;;;;;;1856821;75;26237;-87
2022/08/06 06:09:55;;;;;;;2.35;0.72;;;;;;;;;;1848203;75;26306;-88
2022/08/06 06:12:23;;;;;;;1.32;0.70;;;;;;;;;;1839951;75;26271;-87
2022/08/06 06:14:52;;;;;;;3.42;0.80;;;;;;;;;;1833303;75;26260;-85
2022/08/06 06:17:29;;;;;;;2.40;0.70;;;;;;;;;;1858664;75;26250;-85
2022/08/06 06:20:04;;;;;;;10.48;1.20;;;;;;;;;;1864642;74;26308;-86
2022/08/06 06:22:36;;;;;;;5.95;0.90;;;;;;;;;;1863709;75;26803;-84
2022/08/06 06:25:05;;;;;;;5.42;0.82;;;;;;;;;;1845229;75;26299;-86
2022/08/06 06:27:49;;;;;;;3.70;0.90;;;;;;;;;;1851754;72;26239;-87
2022/08/06 06:30:17;;;;;;;5.15;0.93;;;;;;;;;;1842804;75;26312;-86
2022/08/06 06:32:50;;;;;;;5.28;0.88;;;;;;;;;;1856522;75;26331;-86
2022/08/06 06:35:20;;;;;;;2.60;0.90;;;;;;;;;;1860527;74;26753;-86
2022/08/06 06:37:55;;;;;;;4.55;0.90;;;;;;;;;;1857547;75;26250;-87
2022/08/06 06:40:36;;;;;;;2.45;0.80;;;;;;;;;;1850532;75;26268;-86
2022/08/06 06:43:04;;;;;;;0.75;0.70;;;;;;;;;;1857139;75;26315;-87
2022/08/06 06:45:36;;;;;;;9.10;0.82;;;;;;;;;;1864355;75;26296;-86
2022/08/06 06:48:17;;;;;;;1.90;0.70;;;;;;;;;;1850291;75;26828;-86
2022/08/06 06:50:48;;;;;;;2.42;0.90;;;;;;;;;;1868763;75;26334;-87
2022/08/06 06:53:17;;;;;;;2.58;0.90;;;;;;;;;;1878779;74;26352;-85
2022/08/06 06:55:49;;;;;;;1.85;0.80;;;;;;;;;;1873749;75;26199;-86
2022/08/06 06:58:17;;;;;;;1.57;0.80;;;;;;;;;;1860247;75;26217;-86
2022/08/06 07:00:45;;;;;;;1.55;0.90;;;;;;;;;;1870909;75;26199;-86
2022/08/06 07:03:12;;;;;;;1.70;0.80;;;;;;;;;;1855050;75;26256;-87
2022/08/06 07:05:43;;;;;;;1.67;0.85;;;;;;;;;;1866387;75;26797;-86
2022/08/06 07:08:11;;;;;;;3.37;1.10;;;;;;;;;;1844760;75;26289;-86
2022/08/06 07:10:39;;;;;;;1.07;0.88;;;;;;;;;;1859100;74;26646;-87
2022/08/06 07:13:08;;;;;;;2.02;0.80;;;;;;;;;;1874807;75;26696;-87
2022/08/06 07:15:35;;;;;;;0.70;0.70;;;;;;;;;;1853614;75;26304;-86
2022/08/06 07:18:03;;;;;;;1.27;0.70;;;;;;;;;;1889162;74;26719;-86
2022/08/06 07:20:31;;;;;;;0.70;0.62;;;;;;;;;;1855796;75;26248;-86
2022/08/06 07:23:00;;;;;;;2.52;0.80;;;;;;;;;;1867366;74;26745;-86
2022/08/06 07:25:28;;;;;;;0.80;0.80;;;;;;;;;;1853287;74;26238;-87
2022/08/06 07:27:55;;;;;;;0.82;0.60;;;;;;;;;;1853079;75;26276;-86
2022/08/06 07:30:23;;;;;;;0.60;0.60;;;;;;;;;;1844331;75;26274;-86
2022/08/06 07:32:50;;;;;;;0.70;0.70;;;;;;;;;;1847779;75;26319;-86
2022/08/06 07:35:18;;;;;;;1.17;0.70;;;;;;;;;;1852373;75;26376;-86
2022/08/06 07:37:50;;;;;;;0.60;0.60;;;;;;;;;;1865790;75;26725;-86
2022/08/06 07:40:22;;;;;;;0.50;0.50;;;;;;;;;;1872373;75;26312;-87
2022/08/06 07:42:51;;;;;;;1.75;0.60;;;;;;;;;;1862129;75;26257;-87
2022/08/06 07:45:18;;;;;;;0.68;0.65;;;;;;;;;;1862427;75;26366;-87
2022/08/06 07:47:45;;;;;;;0.60;0.60;;;;;;;;;;1868842;74;26258;-86
2022/08/06 07:50:13;;;;;;;0.50;0.50;;;;;;;;;;1876817;75;26348;-86
2022/08/06 07:52:41;;;;;;;0.70;0.70;;;;;;;;;;1877306;74;26403;-86
2022/08/06 07:55:12;;;;;;;0.57;0.57;;;;;;;;;;1848583;75;26352;-86
2022/08/06 07:57:40;;;;;;;0.55;0.55;;;;;;;;;;1847285;75;26697;-87
2022/08/06 08:00:09;;;;;;;0.42;0.42;;;;;;;;;;1857289;75;26306;-87
2022/08/06 08:02:38;;;;;;;0.98;0.62;;;;;;;;;;1844165;75;26244;-87
2022/08/06 08:07:51;;;;;;;0.55;0.55;;;;;;;;;;1869876;75;26312;-86
2022/08/06 08:10:19;;;;;;;0.60;0.60;;;;;;;;;;1873814;74;26242;-87
2022/08/06 08:12:49;;;;;;;0.68;0.68;;;;;;;;;;1887872;74;26372;-86
2022/08/06 08:15:16;;;;;;;0.60;0.57;;;;;;;;;;1872004;75;26748;-87
2022/08/06 08:17:44;;;;;;;0.50;0.50;;;;;;;;;;1898513;73;26282;-87
2022/08/06 08:20:12;;;;;;;0.70;0.62;;;;;;;;;;1862868;75;26288;-86
2022/08/06 08:22:39;;;;;;;0.53;0.53;;;;;;;;;;1878695;75;26292;-86
2022/08/06 08:25:08;;;;;;;0.82;0.60;;;;;;;;;;1858248;75;26264;-87
2022/08/06 08:27:35;;;;;;;0.60;0.60;;;;;;;;;;1867188;75;26683;-87
2022/08/06 08:30:03;;;;;;;0.50;0.50;;;;;;;;;;1849927;75;26699;-87
2022/08/06 08:32:30;;;;;;;0.57;0.57;;;;;;;;;;1850119;75;26375;-87
2022/08/06 08:34:57;;;;;;;0.60;0.60;;;;;;;;;;1845258;75;26237;-86
2022/08/06 08:37:25;;;;;;;0.75;0.40;;;;;;;;;;1874329;74;26755;-86
2022/08/06 08:39:52;;;;;;;0.93;0.65;;;;;;;;;;1875740;74;26300;-86
2022/08/06 08:42:21;;;;;;;0.50;0.50;;;;;;;;;;1863438;75;26317;-87
2022/08/06 08:44:49;;;;;;;0.50;0.50;;;;;;;;;;1877067;75;26308;-87
2022/08/06 08:47:19;;;;;;;0.60;0.60;;;;;;;;;;1874887;75;26707;-87
2022/08/06 08:49:47;;;;;;;0.47;0.47;;;;;;;;;;1875777;74;26340;-85
2022/08/06 08:52:16;;;;;;;0.40;0.40;;;;;;;;;;1873231;74;27110;-86
2022/08/06 08:54:45;;;;;;;0.50;0.50;;;;;;;;;;1867793;75;26256;-86
2022/08/06 08:57:14;;;;;;;0.50;0.50;;;;;;;;;;1854228;75;26330;-86
2022/08/06 08:59:42;;;;;;;0.40;0.40;;;;;;;;;;1875113;74;26731;-86
2022/08/06 09:02:13;;;;;;;0.40;0.40;;;;;;;;;;1865342;74;26281;-86
2022/08/06 09:04:41;;;;;;;0.57;0.55;;;;;;;;;;1856312;75;26729;-86
2022/08/06 09:07:08;;;;;;;0.40;0.40;;;;;;;;;;1854749;74;26013;-86
2022/08/06 09:09:38;;;;;;;0.40;0.40;;;;;;;;;;1869806;75;26760;-86
2022/08/06 09:12:05;;;;;;;0.40;0.40;;;;;;;;;;1870492;74;26749;-87
2022/08/06 09:14:33;;;;;;;0.50;0.50;;;;;;;;;;1855771;74;26397;-87
2022/08/06 09:17:01;;;;;;;0.60;0.60;;;;;;;;;;1862663;74;26634;-86
2022/08/06 09:19:29;;;;;;;0.30;0.30;;;;;;;;;;1872662;74;26225;-87
2022/08/06 09:21:57;;;;;;;0.35;0.35;;;;;;;;;;1851912;75;26259;-86
2022/08/06 09:24:24;;;;;;;0.42;0.42;;;;;;;;;;1838352;75;26252;-86
2022/08/06 09:27:08;;;;;;;0.40;0.40;;;;;;;;;;1863483;75;26222;-85
2022/08/06 09:29:36;;;;;;;0.30;0.30;;;;;;;;;;1846551;75;26217;-87
2022/08/06 09:32:04;;;;;;;0.40;0.40;;;;;;;;;;1864493;75;26286;-86
2022/08/06 09:34:33;;;;;;;0.40;0.40;;;;;;;;;;1856265;75;26360;-87
2022/08/06 09:37:00;;;;;;;0.30;0.30;;;;;;;;;;1863246;76;26295;-86
2022/08/06 09:39:31;;;;;;;0.42;0.42;;;;;;;;;;1869961;75;26253;-86
2022/08/06 09:41:58;;;;;;;0.40;0.40;;;;;;;;;;1878610;75;26249;-86
2022/08/06 09:44:26;;;;;;;0.40;0.40;;;;;;;;;;1861995;74;26215;-86
2022/08/06 09:46:53;;;;;;;0.90;0.37;;;;;;;;;;1874885;75;26250;-86
2022/08/06 09:49:21;;;;;;;0.40;0.40;;;;;;;;;;1878130;74;26820;-87
2022/08/06 09:51:49;;;;;;;0.40;0.40;;;;;;;;;;1872905;76;26726;-85
2022/08/06 09:54:16;;;;;;;0.25;0.25;;;;;;;;;;1884239;75;26274;-86
2022/08/06 09:56:44;;;;;;;0.40;0.40;;;;;;;;;;1870356;75;26219;-87
2022/08/06 09:59:12;;;;;;;0.23;0.23;;;;;;;;;;1889356;75;26265;-86
2022/08/06 10:01:43;;;;;;;0.40;0.40;;;;;;;;;;1870523;75;26225;-86
2022/08/06 10:04:15;;;;;;;0.20;0.20;;;;;;;;;;1865203;75;26651;-86
2022/08/06 10:06:52;;;;;;;0.28;0.28;;;;;;;;;;1871658;74;26899;-86
2022/08/06 10:09:20;;;;;;;0.20;0.20;;;;;;;;;;1880641;75;26254;-87
2022/08/06 10:11:47;;;;;;;0.30;0.30;;;;;;;;;;1867822;75;26267;-86
2022/08/06 10:14:16;;;;;;;0.20;0.20;;;;;;;;;;1872079;75;26800;-86
2022/08/06 10:16:43;;;;;;;0.30;0.30;;;;;;;;;;1880659;74;26217;-87
2022/08/06 10:19:12;;;;;;;0.30;0.30;;;;;;;;;;1883782;74;26226;-86
2022/08/06 10:21:39;;;;;;;0.30;0.30;;;;;;;;;;1871814;75;26302;-86
2022/08/06 10:24:07;;;;;;;0.30;0.30;;;;;;;;;;1874317;74;26257;-86
2022/08/06 10:26:34;;;;;;;0.20;0.20;;;;;;;;;;1865193;74;26225;-87
2022/08/06 10:29:06;;;;;;;0.10;0.10;;;;;;;;;;1865748;75;26279;-87
2022/08/06 10:31:34;;;;;;;0.30;0.30;;;;;;;;;;1876430;74;26196;-86
2022/08/06 10:34:03;;;;;;;0.20;0.20;;;;;;;;;;1891456;73;26352;-86
2022/08/06 10:36:37;;;;;;;0.17;0.17;;;;;;;;;;1876187;73;26187;-85
2022/08/06 10:39:05;;;;;;;0.10;0.10;;;;;;;;;;1866420;74;26276;-87
2022/08/06 10:41:34;;;;;;;0.28;0.28;;;;;;;;;;1873653;74;26210;-86
2022/08/06 10:44:02;;;;;;;0.13;0.13;;;;;;;;;;1869075;74;26309;-87
2022/08/06 10:46:30;;;;;;;0.20;0.20;;;;;;;;;;1888301;72;26182;-86
2022/08/06 10:48:57;;;;;;;0.20;0.20;;;;;;;;;;1864107;74;26172;-87
2022/08/06 10:51:25;;;;;;;0.20;0.20;;;;;;;;;;1889371;74;26257;-86
2022/08/06 10:53:53;;;;;;;0.10;0.10;;;;;;;;;;1878021;74;26287;-86
2022/08/06 10:56:20;;;;;;;0.20;0.20;;;;;;;;;;1874602;75;26705;-86
2022/08/06 10:58:48;;;;;;;0.30;0.30;;;;;;;;;;1875237;74;26699;-86
2022/08/06 11:01:19;;;;;;;0.20;0.20;;;;;;;;;;1875658;74;26330;-86
2022/08/06 11:04:00;;;;;;;0.15;0.15;;;;;;;;;;1876823;74;26336;-87
2022/08/06 11:06:47;;;;;;;0.17;0.17;;;;;;;;;;1885599;75;26238;-85
2022/08/06 11:09:21;;;;;;;0.20;0.20;;;;;;;;;;1869061;74;26296;-85
2022/08/06 11:11:50;;;;;;;0.10;0.10;;;;;;;;;;1884906;74;26296;-86
2022/08/06 11:14:18;;;;;;;0.23;0.23;;;;;;;;;;1862071;74;27154;-87
2022/08/06 11:16:58;;;;;;;0.20;0.20;;;;;;;;;;1863206;75;26246;-87
2022/08/06 11:19:39;;;;;;;0.20;0.20;;;;;;;;;;1886082;74;26367;-87
2022/08/06 11:22:06;;;;;;;0.20;0.20;;;;;;;;;;1892175;75;26254;-86
2022/08/06 11:24:34;;;;;;;0.20;0.20;;;;;;;;;;1836595;76;26634;-87
2022/08/06 11:27:01;;;;;;;0.20;0.20;;;;;;;;;;1884364;74;26280;-87
2022/08/06 11:29:28;;;;;;;0.30;0.30;;;;;;;;;;1862819;75;26299;-86
2022/08/06 11:31:57;;;;;;;0.20;0.20;;;;;;;;;;1885964;75;26267;-87
2022/08/06 11:34:25;;;;;;;0.20;0.20;;;;;;;;;;1859934;75;26307;-88
2022/08/06 11:36:56;;;;;;;0.30;0.30;;;;;;;;;;1839059;75;26240;-87
2022/08/06 11:39:24;;;;;;;0.25;0.25;;;;;;;;;;1866221;74;26226;-86
2022/08/06 11:41:53;;;;;;;0.20;0.20;;;;;;;;;;1887707;75;26218;-87
2022/08/06 11:44:21;;;;;;;0.30;0.30;;;;;;;;;;1864106;73;26349;-87
2022/08/06 11:46:49;;;;;;;0.20;0.20;;;;;;;;;;1874699;75;26284;-87
2022/08/06 11:49:18;;;;;;;0.20;0.20;;;;;;;;;;1884524;75;26360;-87
2022/08/06 11:51:47;;;;;;;0.20;0.20;;;;;;;;;;1854220;75;26273;-86
2022/08/06 11:54:15;;;;;;;0.30;0.30;;;;;;;;;;1856324;75;26252;-87
2022/08/06 11:57:00;;;;;;;0.20;0.20;;;;;;;;;;1822964;76;26234;-87
2022/08/06 11:59:32;;;;;;;0.30;0.30;;;;;;;;;;1847768;75;26217;-86
2022/08/06 12:02:00;;;;;;;0.25;0.25;;;;;;;;;;1866084;74;26229;-87
2022/08/06 12:04:47;;;;;;;0.20;0.20;;;;;;;;;;1877176;75;26405;-87
2022/08/06 12:07:24;;;;;;;0.20;0.20;;;;;;;;;;1865027;75;26219;-88
2022/08/06 12:10:02;;;;;;;0.20;0.20;;;;;;;;;;1867441;75;26288;-86
2022/08/06 12:12:31;;;;;;;0.20;0.20;;;;;;;;;;1878988;74;26238;-86
2022/08/06 12:15:00;;;;;;;0.20;0.20;;;;;;;;;;1865929;74;26372;-87
2022/08/06 12:17:28;;;;;;;0.20;0.20;;;;;;;;;;1873239;74;26276;-87
2022/08/06 12:19:57;;;;;;;0.30;0.30;;;;;;;;;;1873029;75;26258;-87
2022/08/06 12:22:24;;;;;;;0.30;0.30;;;;;;;;;;1849783;74;26941;-87
2022/08/06 12:24:54;;;;;;;0.25;0.25;;;;;;;;;;1865996;74;26217;-86
2022/08/06 12:27:22;;;;;;;0.30;0.30;;;;;;;;;;1867820;75;26340;-87
2022/08/06 12:29:51;;;;;;;0.20;0.20;;;;;;;;;;1860990;76;26740;-87
2022/08/06 12:32:23;;;;;;;0.25;0.25;;;;;;;;;;1865176;75;26700;-87
2022/08/06 12:34:51;;;;;;;0.10;0.10;;;;;;;;;;1868548;75;26239;-88
2022/08/06 12:37:19;;;;;;;0.20;0.20;;;;;;;;;;1858002;75;26350;-87
2022/08/06 12:42:32;;;;;;;0.10;0.10;;;;;;;;;;1870664;75;26819;-87
2022/08/06 12:45:00;;;;;;;0.23;0.23;;;;;;;;;;1854527;75;26261;-87
2022/08/06 12:47:27;;;;;;;0.20;0.20;;;;;;;;;;1843974;75;26669;-86
2022/08/06 12:49:54;;;;;;;0.20;0.20;;;;;;;;;;1863754;74;26242;-86
2022/08/06 12:52:22;;;;;;;0.20;0.20;;;;;;;;;;1847602;75;26749;-86
2022/08/06 12:54:49;;;;;;;0.20;0.20;;;;;;;;;;1870392;75;26245;-87
2022/08/06 12:57:21;;;;;;;0.30;0.30;;;;;;;;;;1870608;75;26221;-86
2022/08/06 12:59:49;;;;;;;0.20;0.20;;;;;;;;;;1857822;75;26262;-87
2022/08/06 13:02:18;;;;;;;0.20;0.20;;;;;;;;;;1875228;75;26261;-87
2022/08/06 13:04:49;;;;;;;0.20;0.20;;;;;;;;;;1859123;75;26796;-87
2022/08/06 13:07:17;;;;;;;0.28;0.28;;;;;;;;;;1888066;74;26240;-87
2022/08/06 13:09:46;;;;;;;0.20;0.20;;;;;;;;;;1869392;74;26315;-87
2022/08/06 13:12:18;;;;;;;0.20;0.20;;;;;;;;;;1865306;75;26305;-87
2022/08/06 13:14:50;;;;;;;0.13;0.13;;;;;;;;;;1860248;75;26793;-86
2022/08/06 13:17:17;;;;;;;0.20;0.20;;;;;;;;;;1870747;75;26651;-87
2022/08/06 13:19:54;;;;;;;0.30;0.30;;;;;;;;;;1878553;75;26374;-86
2022/08/06 13:22:22;;;;;;;0.23;0.23;;;;;;;;;;1846976;76;26223;-87
2022/08/06 13:24:50;;;;;;;0.20;0.20;;;;;;;;;;1856715;76;26632;-87
2022/08/06 13:27:18;;;;;;;0.40;0.40;;;;;;;;;;1825390;75;26241;-86
2022/08/06 13:30:00;;;;;;;0.40;0.40;;;;;;;;;;1830545;75;26282;-88
2022/08/06 13:32:28;;;;;;;0.30;0.30;;;;;;;;;;1857663;75;26215;-87
2022/08/06 13:34:56;;;;;;;0.25;0.25;;;;;;;;;;1852983;75;26253;-88
2022/08/06 13:37:40;;;;;;;0.30;0.30;;;;;;;;;;1860718;75;26336;-87
2022/08/06 13:40:07;;;;;;;0.40;0.40;;;;;;;;;;1850178;75;26326;-87
2022/08/06 13:42:36;;;;;;;0.30;0.30;;;;;;;;;;1876954;75;26245;-87
2022/08/06 13:45:05;;;;;;;0.30;0.30;;;;;;;;;;1864636;74;26300;-87
2022/08/06 13:47:32;;;;;;;0.30;0.30;;;;;;;;;;1859697;75;26296;-88
2022/08/06 13:50:00;;;;;;;0.28;0.28;;;;;;;;;;1874767;75;26646;-86
2022/08/06 13:52:27;;;;;;;0.20;0.20;;;;;;;;;;1879899;74;26203;-87
2022/08/06 13:54:56;;;;;;;0.30;0.30;;;;;;;;;;1878947;74;26287;-87
2022/08/06 13:57:23;;;;;;;0.30;0.30;;;;;;;;;;1848476;75;26295;-87
2022/08/06 13:59:50;;;;;;;0.30;0.30;;;;;;;;;;1849907;75;26325;-86
2022/08/06 14:02:17;;;;;;;0.45;0.45;;;;;;;;;;1847457;75;26326;-87
2022/08/06 14:04:46;;;;;;;0.30;0.30;;;;;;;;;;1844201;75;26256;-87
2022/08/06 14:07:15;;;;;;;0.30;0.30;;;;;;;;;;1859321;75;26226;-88
2022/08/06 14:09:42;;;;;;;0.20;0.20;;;;;;;;;;1851790;75;26247;-87
2022/08/06 14:12:10;;;;;;;0.20;0.20;;;;;;;;;;1866771;75;26249;-86
2022/08/06 14:14:37;;;;;;;0.20;0.20;;;;;;;;;;1879765;74;26266;-87
2022/08/06 14:17:05;;;;;;;0.20;0.20;;;;;;;;;;1889390;74;26304;-87
2022/08/06 14:19:32;;;;;;;0.20;0.20;;;;;;;;;;1886991;74;26215;-87
2022/08/06 14:21:59;;;;;;;0.30;0.30;;;;;;;;;;1885399;74;26297;-87
2022/08/06 14:24:26;;;;;;;0.20;0.20;;;;;;;;;;1867572;74;27059;-87
2022/08/06 14:26:54;;;;;;;0.40;0.40;;;;;;;;;;1874442;74;26287;-87
2022/08/06 14:29:21;;;;;;;0.30;0.30;;;;;;;;;;1851410;75;26205;-86
2022/08/06 14:31:50;;;;;;;0.10;0.10;;;;;;;;;;1890721;74;26261;-86
2022/08/06 14:34:17;;;;;;;0.20;0.20;;;;;;;;;;1885291;74;26288;-87
2022/08/06 14:36:45;;;;;;;0.30;0.30;;;;;;;;;;1862863;74;27076;-87
2022/08/06 14:39:12;;;;;;;0.37;0.37;;;;;;;;;;1865413;74;26232;-86
2022/08/06 14:47:10;;;;;;;0.23;0.23;;;;;;;;;;1880570;74;26194;-86
2022/08/06 14:49:43;;;;;;;0.20;0.20;;;;;;;;;;1900990;74;26246;-87
2022/08/06 14:52:07;;;;;;;0.20;0.20;;;;;;;;;;1838416;76;26265;-87
2022/08/06 14:54:35;;;;;;;0.30;0.30;;;;;;;;;;1857125;75;26210;-87
2022/08/06 14:57:04;;;;;;;0.17;0.17;;;;;;;;;;1853552;75;26248;-87
2022/08/06 14:59:31;;;;;;;0.30;0.30;;;;;;;;;;1864632;74;26743;-87
2022/08/06 15:01:58;;;;;;;0.30;0.30;;;;;;;;;;1867739;74;26371;-86
2022/08/06 15:04:25;;;;;;;0.13;0.13;;;;;;;;;;1854573;75;26237;-87
2022/08/06 15:06:53;;;;;;;0.20;0.20;;;;;;;;;;1862335;74;26286;-87